createdAt,value
2022-10-23T00:01:11.009Z,100.00
2022-10-23T00:03:37.695Z,100.00
2022-10-23T00:06:07.805Z,100.00
2022-10-23T00:08:34.433Z,100.00
2022-10-23T00:11:01.152Z,100.00
2022-10-23T00:13:27.724Z,100.00
2022-10-23T00:15:54.365Z,100.00
2022-10-23T00:18:20.929Z,100.00
2022-10-23T00:20:47.536Z,100.00
2022-10-23T00:23:14.099Z,100.00
2022-10-23T00:25:40.724Z,100.00
2022-10-23T00:28:07.301Z,100.00
2022-10-23T00:30:33.908Z,100.00
2022-10-23T00:33:00.416Z,100.00
2022-10-23T00:35:27.118Z,100.00
2022-10-23T00:37:53.699Z,100.00
2022-10-23T00:40:23.597Z,100.00
2022-10-23T00:42:50.134Z,100.00
2022-10-23T00:45:23.114Z,100.00
2022-10-23T00:47:50.275Z,100.00
2022-10-23T00:50:18.247Z,100.00
2022-10-23T00:52:50.713Z,100.00
2022-10-23T00:55:19.565Z,100.00
2022-10-23T00:57:48.146Z,100.00
2022-10-23T01:00:29.164Z,100.00
2022-10-23T01:02:57.215Z,100.00
2022-10-23T01:05:30.595Z,100.00
2022-10-23T01:08:06.992Z,100.00
2022-10-23T01:11:24.259Z,100.00
2022-10-23T01:14:11.771Z,100.00
2022-10-23T01:16:41.425Z,100.00
2022-10-23T01:19:26.194Z,100.00
2022-10-23T01:22:26.250Z,100.00
2022-10-23T01:25:03.298Z,100.00
2022-10-23T01:28:00.285Z,100.00
2022-10-23T01:30:26.958Z,100.00
2022-10-23T01:33:11.454Z,100.00
2022-10-23T01:35:43.514Z,100.00
2022-10-23T01:38:15.135Z,100.00
2022-10-23T01:40:52.825Z,100.00
2022-10-23T01:43:26.765Z,100.00
2022-10-23T01:45:59.444Z,100.00
2022-10-23T01:48:29.272Z,100.00
2022-10-23T01:50:59.074Z,100.00
2022-10-23T01:53:27.752Z,100.00
2022-10-23T01:55:55.747Z,100.00
2022-10-23T01:58:24.940Z,100.00
2022-10-23T02:00:54.158Z,100.00
2022-10-23T02:03:22.669Z,100.00
2022-10-23T02:05:49.371Z,100.00
2022-10-23T02:08:16.087Z,100.00
2022-10-23T02:10:56.954Z,100.00
2022-10-23T02:13:38.769Z,100.00
2022-10-23T02:16:25.353Z,100.00
2022-10-23T02:19:01.070Z,100.00
2022-10-23T02:21:50.856Z,100.00
2022-10-23T02:24:23.864Z,100.00
2022-10-23T02:26:55.770Z,100.00
2022-10-23T02:29:33.757Z,100.00
2022-10-23T02:32:01.610Z,100.00
2022-10-23T02:34:28.231Z,100.00
2022-10-23T02:36:54.814Z,100.00
2022-10-23T02:39:24.705Z,100.00
2022-10-23T02:42:03.239Z,100.00
2022-10-23T02:44:43.253Z,100.00
2022-10-23T02:47:28.847Z,100.00
2022-10-23T02:50:01.495Z,100.00
2022-10-23T02:53:05.401Z,100.00
2022-10-23T02:55:34.817Z,100.00
2022-10-23T02:58:08.873Z,100.00
2022-10-23T03:00:39.118Z,100.00
2022-10-23T03:03:19.701Z,100.00
2022-10-23T03:05:46.460Z,100.00
2022-10-23T03:08:14.491Z,100.00
2022-10-23T03:10:42.484Z,100.00
2022-10-23T03:13:10.643Z,100.00
2022-10-23T03:15:37.702Z,100.00
2022-10-23T03:18:04.457Z,100.00
2022-10-23T03:20:31.162Z,100.00
2022-10-23T03:22:57.736Z,100.00
2022-10-23T03:25:24.306Z,100.00
2022-10-23T03:27:50.944Z,100.00
2022-10-23T03:30:17.965Z,100.00
2022-10-23T03:32:44.749Z,100.00
2022-10-23T03:35:11.529Z,100.00
2022-10-23T03:37:38.176Z,100.00
2022-10-23T03:40:05.722Z,100.00
2022-10-23T03:42:32.322Z,100.00
2022-10-23T03:44:58.892Z,100.00
2022-10-23T03:47:25.609Z,100.00
2022-10-23T03:49:52.237Z,100.00
2022-10-23T03:52:18.897Z,100.00
2022-10-23T03:54:45.497Z,100.00
2022-10-23T03:57:12.403Z,100.00
2022-10-23T03:59:39.046Z,100.00
2022-10-23T04:02:05.673Z,100.00
2022-10-23T04:04:32.270Z,100.00
2022-10-23T04:06:58.966Z,100.00
2022-10-23T04:09:25.738Z,100.00
2022-10-23T04:11:52.282Z,100.00
2022-10-23T04:14:18.964Z,100.00
2022-10-23T04:16:45.566Z,100.00
2022-10-23T04:19:12.134Z,100.00
2022-10-23T04:21:38.755Z,100.00
2022-10-23T04:24:05.846Z,100.00
2022-10-23T04:26:32.456Z,100.00
2022-10-23T04:28:59.105Z,100.00
2022-10-23T04:31:26.029Z,100.00
2022-10-23T04:33:52.690Z,100.00
2022-10-23T09:23:15.672Z,100.00
2022-10-23T09:25:43.110Z,100.00
2022-10-23T09:28:20.502Z,100.00
2022-10-23T09:30:48.779Z,100.00
2022-10-23T09:33:24.565Z,100.00
2022-10-23T09:36:03.528Z,100.00
2022-10-23T09:38:36.143Z,100.00
2022-10-23T09:41:23.043Z,100.00
2022-10-23T09:44:07.893Z,100.00
2022-10-23T09:46:46.763Z,100.00
2022-10-23T09:49:27.254Z,100.00
2022-10-23T09:52:04.671Z,100.00
2022-10-23T09:54:34.897Z,100.00
2022-10-23T09:57:21.158Z,100.00
2022-10-23T09:59:54.456Z,100.00
2022-10-23T10:02:36.261Z,100.00
2022-10-23T10:05:26.758Z,100.00
2022-10-23T10:08:25.728Z,100.00
2022-10-23T10:11:00.341Z,100.00
2022-10-23T10:13:33.161Z,100.00
2022-10-23T10:16:06.977Z,100.00
2022-10-23T10:18:40.986Z,100.00
2022-10-23T10:21:22.458Z,100.00
2022-10-23T10:23:56.023Z,99.75
2022-10-23T10:26:35.096Z,99.16
2022-10-23T10:29:30.978Z,92.91
2022-10-23T10:31:57.556Z,94.49
2022-10-23T10:34:43.515Z,90.44
2022-10-23T10:37:20.710Z,91.66
2022-10-23T10:39:59.174Z,87.96
2022-10-23T10:42:59.127Z,87.20
2022-10-23T10:46:06.081Z,84.45
2022-10-23T10:48:47.644Z,85.71
2022-10-23T10:51:34.757Z,87.32
2022-10-23T10:54:16.175Z,84.54
2022-10-23T10:56:45.772Z,83.19
2022-10-23T10:59:16.545Z,84.78
2022-10-23T11:01:53.624Z,84.59
2022-10-23T11:04:32.839Z,81.80
2022-10-23T11:07:05.721Z,84.66
2022-10-23T11:09:32.426Z,81.32
2022-10-23T11:11:59.476Z,79.66
2022-10-23T11:14:29.286Z,75.46
2022-10-23T11:17:05.343Z,77.97
2022-10-23T11:19:49.393Z,75.83
2022-10-23T11:22:32.274Z,76.95
2022-10-23T11:25:20.957Z,75.00
2022-10-23T11:28:18.767Z,75.48
2022-10-23T11:30:59.841Z,74.32
2022-10-23T11:33:54.644Z,72.29
2022-10-23T11:36:35.792Z,71.44
2022-10-23T11:39:22.881Z,70.74
2022-10-23T11:42:13.401Z,74.22
2022-10-23T11:44:46.293Z,72.20
2022-10-23T11:47:40.423Z,72.99
2022-10-23T11:50:07.430Z,73.53
2022-10-23T11:52:45.442Z,74.92
2022-10-23T11:55:30.080Z,71.10
2022-10-23T11:58:21.133Z,72.22
2022-10-23T12:01:16.853Z,69.02
2022-10-23T12:03:54.812Z,71.79
2022-10-23T12:06:39.784Z,72.93
2022-10-23T12:09:22.638Z,71.70
2022-10-23T12:12:02.046Z,72.46
2022-10-23T12:14:39.147Z,70.88
2022-10-23T12:17:24.730Z,69.93
2022-10-23T12:20:01.457Z,71.70
2022-10-23T12:22:41.758Z,69.50
2022-10-23T12:25:17.829Z,70.98
2022-10-23T12:27:47.397Z,72.02
2022-10-23T12:30:25.050Z,72.65
2022-10-23T12:33:19.197Z,71.94
2022-10-23T12:36:23.822Z,70.50
2022-10-23T12:38:50.699Z,69.88
2022-10-23T12:41:24.364Z,72.31
2022-10-23T12:44:04.249Z,71.31
2022-10-23T12:46:32.937Z,71.24
2022-10-23T12:49:01.507Z,69.81
2022-10-23T12:51:34.001Z,71.32
2022-10-23T12:54:02.451Z,72.06
2022-10-23T12:56:35.590Z,71.65
2022-10-23T12:59:04.049Z,72.81
2022-10-23T13:01:33.353Z,71.68
2022-10-23T13:04:07.953Z,70.32
2022-10-23T13:06:35.080Z,73.29
2022-10-23T13:09:03.763Z,71.52
2022-10-23T13:11:32.147Z,71.53
2022-10-23T13:13:58.883Z,72.36
2022-10-23T13:16:27.161Z,72.65
2022-10-23T13:18:54.569Z,71.88
2022-10-23T13:21:27.338Z,71.72
2022-10-23T13:23:54.549Z,72.29
2022-10-23T13:26:45.280Z,72.30
2022-10-23T13:29:22.900Z,71.83
2022-10-23T13:31:50.453Z,72.60
2022-10-23T13:34:19.141Z,72.56
2022-10-23T13:37:01.297Z,73.29
2022-10-23T13:39:33.097Z,74.32
2022-10-23T13:42:13.308Z,75.08
2022-10-23T13:44:41.333Z,76.26
2022-10-23T13:47:13.441Z,77.63
2022-10-23T13:49:40.295Z,76.92
2022-10-23T13:52:11.172Z,76.18
2022-10-23T13:54:38.086Z,74.76
2022-10-23T13:57:09.570Z,75.86
2022-10-23T13:59:36.218Z,76.24
2022-10-23T14:02:05.252Z,75.75
2022-10-23T14:04:32.217Z,75.70
2022-10-23T14:06:58.892Z,75.86
2022-10-23T14:09:25.932Z,75.64
2022-10-23T14:11:52.693Z,77.44
2022-10-23T14:14:19.381Z,77.14
2022-10-23T14:16:46.024Z,77.16
2022-10-23T14:19:12.789Z,76.84
2022-10-23T14:21:39.504Z,76.45
2022-10-23T14:24:06.545Z,76.00
2022-10-23T14:26:34.345Z,76.32
2022-10-23T14:29:05.082Z,75.26
2022-10-23T14:31:35.781Z,75.27
2022-10-23T14:34:02.643Z,75.06
2022-10-23T14:36:38.568Z,75.56
2022-10-23T14:39:16.298Z,75.45
2022-10-23T14:41:43.030Z,74.07
2022-10-23T14:44:09.881Z,73.44
2022-10-23T14:46:38.486Z,73.36
2022-10-23T14:49:05.537Z,74.85
2022-10-23T14:51:32.339Z,75.55
2022-10-23T14:54:04.357Z,75.99
2022-10-23T14:56:33.711Z,75.77
2022-10-23T14:59:03.304Z,75.81
2022-10-23T15:01:31.889Z,76.27
2022-10-23T15:03:58.858Z,76.64
2022-10-23T15:06:25.956Z,76.97
2022-10-23T15:08:56.924Z,77.57
2022-10-23T15:11:25.252Z,77.79
2022-10-23T15:13:53.028Z,77.85
2022-10-23T15:16:19.723Z,77.24
2022-10-23T15:18:46.776Z,78.23
2022-10-23T15:21:14.238Z,78.17
2022-10-23T15:23:43.542Z,78.91
2022-10-23T15:26:12.217Z,78.08
2022-10-23T15:28:38.879Z,78.45
2022-10-23T15:31:06.465Z,78.64
2022-10-23T15:33:33.162Z,79.42
2022-10-23T15:35:59.865Z,80.00
2022-10-23T15:38:26.628Z,80.11
2022-10-23T15:41:04.040Z,79.50
2022-10-23T15:43:30.753Z,80.58
2022-10-23T15:45:57.429Z,80.77
2022-10-23T15:48:24.486Z,81.00
2022-10-23T15:50:51.322Z,81.19
2022-10-23T15:53:18.061Z,81.36
2022-10-23T15:55:44.832Z,81.47
2022-10-23T15:58:11.634Z,81.82
2022-10-23T16:00:39.707Z,82.18
2022-10-23T16:03:06.444Z,82.06
2022-10-23T16:05:33.170Z,82.11
2022-10-23T16:08:00.159Z,82.29
2022-10-23T16:10:27.171Z,82.86
2022-10-23T16:12:53.939Z,83.06
2022-10-23T16:15:20.765Z,83.46
2022-10-23T16:17:49.054Z,83.85
2022-10-23T16:20:16.389Z,83.75
2022-10-23T16:22:44.951Z,84.44
2022-10-23T16:25:12.112Z,84.97
2022-10-23T16:27:39.279Z,85.24
2022-10-23T16:30:09.038Z,85.92
2022-10-23T16:32:36.544Z,86.31
2022-10-23T16:35:03.207Z,86.58
2022-10-23T16:37:29.768Z,86.69
2022-10-23T16:39:56.427Z,87.43
2022-10-23T16:42:23.770Z,87.51
2022-10-23T16:44:50.558Z,87.52
2022-10-23T16:47:17.405Z,87.40
2022-10-23T16:49:44.119Z,87.92
2022-10-23T16:52:10.700Z,87.86
2022-10-23T16:54:37.373Z,88.50
2022-10-23T16:57:04.064Z,89.61
2022-10-23T16:59:30.607Z,90.28
2022-10-23T17:01:57.337Z,89.77
2022-10-23T17:04:24.085Z,89.60
2022-10-23T17:06:50.690Z,89.23
2022-10-23T17:09:19.343Z,90.20
2022-10-23T17:11:46.403Z,89.96
2022-10-23T17:14:18.667Z,90.42
2022-10-23T17:16:46.652Z,91.08
2022-10-23T17:19:20.720Z,90.89
2022-10-23T17:22:00.329Z,91.54
2022-10-23T17:24:27.135Z,91.38
2022-10-23T17:26:54.152Z,91.17
2022-10-23T17:29:21.020Z,89.80
2022-10-23T17:31:50.239Z,87.50
2022-10-23T17:34:20.871Z,86.69
2022-10-23T17:36:50.225Z,86.33
2022-10-23T17:39:19.985Z,85.90
2022-10-23T17:41:47.016Z,85.38
2022-10-23T17:44:13.573Z,82.73
2022-10-23T17:46:40.478Z,82.92
2022-10-23T17:49:07.897Z,82.68
2022-10-23T17:51:35.495Z,82.47
2022-10-23T17:54:06.755Z,82.32
2022-10-23T17:56:34.887Z,83.07
2022-10-23T17:59:05.663Z,82.58
2022-10-23T18:01:32.484Z,81.83
2022-10-23T18:04:01.715Z,82.29
2022-10-23T18:06:32.225Z,82.91
2022-10-23T18:09:00.437Z,80.34
2022-10-23T18:11:33.235Z,79.71
2022-10-23T18:14:00.948Z,78.57
2022-10-23T18:16:27.771Z,79.31
2022-10-23T18:18:55.109Z,80.16
2022-10-23T18:21:24.028Z,77.09
2022-10-23T18:23:51.676Z,77.57
2022-10-23T18:26:27.289Z,78.93
2022-10-23T18:28:57.414Z,79.45
2022-10-23T18:31:27.077Z,79.28
2022-10-23T18:33:58.903Z,76.94
2022-10-23T18:36:27.754Z,77.66
2022-10-23T18:41:42.888Z,77.47
2022-10-23T18:44:11.125Z,77.68
2022-10-23T18:46:37.793Z,79.11
2022-10-23T18:49:05.411Z,79.38
2022-10-23T18:51:34.778Z,79.92
2022-10-23T18:54:03.026Z,79.59
2022-10-23T18:56:29.797Z,80.63
2022-10-23T18:58:59.025Z,81.03
2022-10-23T19:01:27.246Z,80.91
2022-10-23T19:06:26.630Z,81.79
2022-10-23T19:08:54.068Z,83.12
2022-10-23T19:11:23.119Z,84.23
2022-10-23T19:13:49.725Z,84.49
2022-10-23T19:16:26.025Z,85.93
2022-10-23T19:18:56.872Z,87.05
2022-10-23T19:21:31.134Z,88.29
2022-10-23T19:24:04.402Z,89.48
2022-10-23T19:26:34.355Z,90.00
2022-10-23T19:29:01.542Z,91.04
2022-10-23T19:31:28.217Z,94.20
2022-10-23T19:33:54.853Z,97.50
2022-10-23T19:36:23.562Z,98.55
2022-10-23T19:38:50.546Z,100.00
2022-10-23T19:41:18.396Z,100.00
2022-10-23T19:43:44.965Z,100.00
2022-10-23T19:46:12.359Z,100.00
2022-10-23T19:48:42.579Z,100.00
2022-10-23T19:51:09.565Z,100.00
2022-10-23T19:53:36.387Z,100.00
2022-10-23T19:56:04.820Z,100.00
2022-10-23T19:58:31.414Z,100.00
2022-10-23T20:00:58.030Z,100.00
2022-10-23T20:03:24.650Z,100.00
2022-10-23T20:05:51.268Z,100.00
2022-10-23T20:08:18.126Z,100.00
2022-10-23T20:10:46.629Z,100.00
2022-10-23T20:13:21.232Z,100.00
2022-10-23T20:15:48.149Z,100.00
2022-10-23T20:18:14.690Z,100.00
2022-10-23T20:20:42.383Z,100.00
2022-10-23T20:23:09.500Z,100.00
2022-10-23T20:25:36.273Z,100.00
2022-10-23T20:28:03.418Z,100.00
2022-10-23T20:30:30.147Z,100.00
2022-10-23T20:32:56.762Z,100.00
2022-10-23T20:35:23.860Z,100.00
2022-10-23T20:37:50.573Z,100.00
2022-10-23T20:40:17.269Z,100.00
2022-10-23T20:42:43.888Z,100.00
2022-10-23T20:45:10.842Z,100.00
2022-10-23T20:47:37.405Z,100.00
2022-10-23T20:50:04.298Z,100.00
2022-10-23T20:54:59.698Z,100.00
2022-10-23T20:57:26.285Z,100.00
2022-10-23T20:59:53.268Z,100.00
2022-10-23T21:02:19.914Z,100.00
2022-10-23T21:04:47.682Z,100.00
2022-10-23T21:07:14.292Z,100.00
2022-10-23T21:09:40.895Z,100.00
2022-10-23T21:12:08.381Z,100.00
2022-10-23T21:14:35.377Z,100.00
2022-10-23T21:17:01.983Z,100.00
2022-10-23T21:19:28.566Z,100.00
2022-10-23T21:21:55.402Z,100.00
2022-10-23T21:24:22.145Z,100.00
2022-10-23T21:26:48.830Z,100.00
2022-10-23T21:29:19.873Z,100.00
2022-10-23T21:31:58.829Z,100.00
2022-10-23T21:34:26.681Z,100.00
2022-10-23T21:37:12.378Z,100.00
2022-10-23T21:39:40.131Z,100.00
2022-10-23T21:42:06.811Z,100.00
2022-10-23T21:44:33.542Z,100.00
2022-10-23T21:47:00.130Z,100.00
2022-10-23T21:49:26.777Z,100.00
2022-10-23T21:51:55.115Z,100.00
2022-10-23T21:54:22.115Z,100.00
2022-10-23T21:56:50.776Z,100.00
2022-10-23T21:59:20.162Z,100.00
2022-10-23T22:01:47.657Z,100.00
2022-10-23T22:04:17.183Z,100.00
2022-10-23T22:06:44.445Z,100.00
2022-10-23T22:09:16.659Z,100.00
2022-10-23T22:11:43.431Z,100.00
2022-10-23T22:14:10.144Z,100.00
2022-10-23T22:16:37.161Z,100.00
2022-10-23T22:19:04.035Z,100.00
2022-10-23T22:21:31.667Z,100.00
2022-10-23T22:24:00.586Z,100.00
2022-10-23T22:26:36.508Z,100.00
2022-10-23T22:29:09.085Z,100.00
2022-10-23T22:31:36.538Z,100.00
2022-10-23T22:34:18.505Z,100.00
2022-10-23T22:36:52.879Z,100.00
2022-10-23T22:39:19.460Z,100.00
2022-10-23T22:41:47.580Z,100.00
2022-10-23T22:44:15.261Z,100.00
2022-10-23T22:46:42.738Z,100.00
2022-10-23T22:49:09.630Z,100.00
2022-10-23T22:51:37.991Z,100.00
2022-10-23T22:54:04.644Z,100.00
2022-10-23T22:56:32.404Z,100.00
2022-10-23T22:58:59.060Z,100.00
2022-10-23T23:01:38.471Z,100.00
2022-10-23T23:04:13.965Z,100.00
2022-10-23T23:06:51.530Z,100.00
2022-10-23T23:09:18.837Z,100.00
2022-10-23T23:11:52.078Z,100.00
2022-10-23T23:14:23.092Z,100.00
2022-10-23T23:16:51.455Z,100.00
2022-10-23T23:19:18.086Z,100.00
2022-10-23T23:21:44.652Z,100.00
2022-10-23T23:24:12.152Z,100.00
2022-10-23T23:26:38.991Z,100.00
2022-10-23T23:29:05.719Z,100.00
2022-10-23T23:31:32.448Z,100.00
2022-10-23T23:33:59.132Z,100.00
2022-10-23T23:36:27.977Z,100.00
2022-10-23T23:38:57.073Z,100.00
2022-10-23T23:41:24.834Z,100.00
2022-10-23T23:43:54.046Z,100.00
2022-10-23T23:46:20.882Z,100.00
2022-10-23T23:48:49.500Z,100.00
2022-10-23T23:51:18.859Z,100.00
2022-10-23T23:53:45.499Z,100.00
2022-10-23T23:56:12.137Z,100.00
2022-10-23T23:58:39.081Z,100.00
